This is the latest recevied weather packets stored in our database for station/object S57ZT-10. If no packets are shown the sender has not sent any weather packets the latest 10 day(s).
| Time | Temp. | Humidity | Pressure | Rain* | Wind** | Luminosity | Snow |
|---|---|---|---|---|---|---|---|
| 1777580182 | 13.33° C | 28% | 1029.9 hPa | - | - | - | - |
| 1777579282 | 13.33° C | 28% | 1029.9 hPa | - | - | - | - |
| 1777574820 | 14.44° C | 26% | 1029.1 hPa | - | - | - | - |
| 1777574787 | 14.44° C | 26% | 1029.1 hPa | - | - | - | - |
| 1777572987 | 15° C | 26% | 1028.6 hPa | - | - | - | - |
| 1777572087 | 15.56° C | 25% | 1028.3 hPa | - | - | - | - |
| 1777569383 | 16.67° C | 21% | 1027.7 hPa | - | - | - | - |
| 1777568520 | 17.22° C | 20% | 1027.7 hPa | - | - | - | - |
| 1777565787 | 18.33° C | 20% | 1027.6 hPa | - | - | - | - |
| 1777563987 | 19.44° C | 19% | 1027.5 hPa | - | - | - | - |
| 1777563087 | 20° C | 18% | 1027.3 hPa | - | - | - | - |
| 1777558575 | 21.67° C | 17% | 1027.5 hPa | - | - | - | - |
| 1777556819 | 21.67° C | 17% | 1027.8 hPa | - | - | - | - |
| 1777550527 | 22.22° C | 16% | 1028.7 hPa | - | - | - | - |
| 1777547003 | 21.67° C | 18% | 1029.1 hPa | - | - | - | - |
| 1777546046 | 21.67° C | 19% | 1029.1 hPa | - | - | - | - |
| 1777544168 | 20.56° C | 20% | 1029.5 hPa | - | - | - | - |
| 1777543268 | 20.56° C | 21% | 1029.8 hPa | - | - | - | - |
| 1777542368 | 20° C | 21% | 1030 hPa | - | - | - | - |
| 1777541468 | 19.44° C | 21% | 1030.1 hPa | - | - | - | - |
| 1777540568 | 18.89° C | 24% | 1030.1 hPa | - | - | - | - |
| 1777539668 | 18.33° C | 23% | 1030.1 hPa | - | - | - | - |
| 1777537868 | 17.22° C | 24% | 1030.2 hPa | - | - | - | - |
| 1777536967 | 16.11° C | 26% | 1030.3 hPa | - | - | - | - |
| 1777536067 | 15.56° C | 26% | 1030.4 hPa | - | - | - | - |
* Rain since midnight (hover to see other rain measurements)
** Current wind speed in m/s (hover to see current wind gust speed)